Time;durP1;ratioP1;P1;durP2;ratioP2;P2;SDS_P1;SDS_P2;PMS_P1;PMS_P2;Temp;Humidity;BMP_temperature;BMP_pressure;BME280_temperature;BME280_humidity;BME280_pressure;Samples;Min_cycle;Max_cycle;Signal;HPM_P1;HPM_P2
2022/01/14 00:01:49;;;;;;;4.60;4.00;;;-1.10;99.90;;;-0.21;100.00;100222.09;5097672;28;20534;-83
2022/01/14 00:04:19;;;;;;;6.60;4.10;;;-1.10;99.90;;;-0.23;100.00;100225.66;5094233;28;20574;-83
2022/01/14 00:06:49;;;;;;;7.93;3.83;;;-1.10;99.90;;;-0.16;100.00;100221.91;5097861;28;20458;-83
2022/01/14 00:09:19;;;;;;;10.50;4.40;;;-1.00;99.90;;;-0.29;100.00;100216.47;5094273;28;20466;-83
2022/01/14 00:11:54;;;;;;;5.80;4.43;;;-1.20;99.90;;;-0.28;100.00;100214.75;5095622;28;20567;-83
2022/01/14 00:14:37;;;;;;;8.23;4.50;;;-1.10;99.90;;;-0.27;100.00;100206.94;5096603;28;20491;-83
2022/01/14 00:17:11;;;;;;;8.97;4.43;;;-1.10;99.90;;;-0.26;100.00;100210.34;5092237;28;20622;-82
2022/01/14 00:19:43;;;;;;;6.73;4.80;;;-1.20;99.90;;;-0.33;100.00;100202.06;5093550;28;20462;-82
2022/01/14 00:22:16;;;;;;;8.30;4.33;;;-1.20;99.90;;;-0.29;100.00;100202.78;5095389;28;20559;-82
2022/01/14 00:33:16;;;;;;;11.10;5.10;;;-1.00;99.90;;;-0.17;100.00;100194.53;5095183;28;20488;-83
2022/01/14 00:35:46;;;;;;;5.87;4.10;;;-1.00;99.90;;;-0.33;100.00;100190.97;5092459;28;20461;-83
2022/01/14 00:38:16;;;;;;;6.00;4.50;;;-1.10;99.90;;;-0.26;100.00;100182.09;5093361;28;20464;-82
2022/01/14 00:40:46;;;;;;;9.30;4.70;;;-1.10;99.90;;;-0.28;100.00;100178.75;5094091;28;20476;-82
2022/01/14 00:43:16;;;;;;;8.87;4.73;;;-1.10;99.90;;;-0.27;100.00;100175.25;5091197;28;20461;-83
2022/01/14 00:45:46;;;;;;;6.40;3.97;;;-1.10;99.90;;;-0.27;100.00;100180.41;5092674;28;20537;-82
2022/01/14 00:48:17;;;;;;;6.70;4.50;;;-1.10;99.90;;;-0.28;100.00;100173.63;5094008;28;20462;-82
2022/01/14 00:50:47;;;;;;;5.53;4.10;;;-1.20;99.90;;;-0.26;100.00;100177.78;5093446;28;20459;-82
2022/01/14 00:53:17;;;;;;;9.20;4.37;;;-1.10;99.90;;;-0.26;100.00;100172.66;5091774;28;20493;-82
2022/01/14 00:55:54;;;;;;;8.43;4.47;;;-1.10;99.90;;;-0.24;100.00;100181.09;5091487;28;20461;-83
2022/01/14 01:01:11;;;;;;;4.80;3.90;;;-1.10;99.90;;;-0.29;100.00;100182.22;5091876;28;20458;-82
2022/01/14 01:03:43;;;;;;;6.07;4.37;;;-1.10;99.90;;;-0.39;100.00;100183.53;5092201;28;20473;-82
2022/01/14 01:06:12;;;;;;;6.43;3.57;;;-1.30;99.90;;;-0.30;100.00;100185.69;5091253;28;20505;-83
2022/01/14 01:08:43;;;;;;;7.00;4.20;;;-1.10;99.90;;;-0.33;100.00;100186.66;5091976;28;20810;-83
2022/01/14 01:11:13;;;;;;;9.80;4.53;;;-1.20;99.90;;;-0.42;100.00;100181.94;5092332;28;20459;-83
2022/01/14 01:13:49;;;;;;;10.03;4.17;;;-1.30;99.90;;;-0.35;100.00;100178.19;5091815;28;20740;-82
2022/01/14 01:16:20;;;;;;;4.83;3.87;;;-1.20;99.90;;;-0.32;100.00;100172.06;5095506;28;20482;-83
2022/01/14 01:18:50;;;;;;;10.70;4.03;;;-1.20;99.90;;;-0.32;100.00;100169.50;5091437;28;20870;-83
2022/01/14 01:21:19;;;;;;;6.50;3.90;;;-1.10;99.90;;;-0.46;100.00;100169.25;5093349;28;20522;-82
2022/01/14 01:23:48;;;;;;;6.43;3.80;;;-1.30;99.90;;;-0.35;100.00;100169.66;5093244;28;20880;-83
2022/01/14 01:26:25;;;;;;;6.80;4.20;;;-1.20;99.90;;;-0.40;100.00;100171.56;5092797;28;20938;-82
2022/01/14 01:29:02;;;;;;;4.73;3.70;;;-1.20;99.90;;;-0.38;100.00;100177.50;5092277;28;20472;-82
2022/01/14 01:31:36;;;;;;;7.30;3.90;;;-1.20;99.90;;;-0.37;100.00;100168.84;5092759;28;20462;-82
2022/01/14 01:34:11;;;;;;;6.03;4.17;;;-1.20;99.90;;;-0.37;100.00;100161.16;5091600;28;20564;-82
2022/01/14 01:36:45;;;;;;;6.13;3.87;;;-1.10;99.90;;;-0.48;100.00;100166.75;5095045;28;20460;-82
2022/01/14 01:39:18;;;;;;;6.37;4.23;;;-1.30;99.90;;;-0.41;100.00;100169.88;5092722;28;20502;-82
2022/01/14 01:41:50;;;;;;;6.03;4.30;;;-1.30;99.90;;;-0.46;100.00;100179.53;5093324;28;20454;-82
2022/01/14 01:44:22;;;;;;;5.90;3.33;;;-1.30;99.90;;;-0.52;100.00;100171.19;5095818;28;20586;-82
2022/01/14 01:46:52;;;;;;;4.37;3.07;;;-1.40;99.90;;;-0.51;100.00;100165.16;5093942;28;20836;-83
2022/01/14 01:49:27;;;;;;;5.27;3.33;;;-1.40;99.90;;;-0.52;100.00;100170.34;5096802;28;20485;-82
2022/01/14 01:51:57;;;;;;;3.23;2.70;;;-1.40;99.90;;;-0.48;100.00;100166.75;5098417;28;20930;-83
2022/01/14 01:54:30;;;;;;;5.83;3.43;;;-1.30;99.90;;;-0.48;100.00;100166.75;5095181;28;20616;-82
2022/01/14 01:57:01;;;;;;;6.53;4.00;;;-1.30;99.90;;;-0.47;100.00;100162.44;5095036;28;20565;-82
2022/01/14 01:59:32;;;;;;;10.53;3.77;;;-1.20;99.90;;;-0.54;100.00;100167.00;5096591;28;20503;-83
2022/01/14 02:02:04;;;;;;;4.53;3.37;;;-1.40;99.90;;;-0.58;100.00;100158.59;5093855;28;20930;-82
2022/01/14 02:04:36;;;;;;;8.33;4.10;;;-1.40;99.90;;;-0.63;100.00;100154.56;5097826;28;20463;-83
2022/01/14 02:07:06;;;;;;;4.40;2.40;;;-1.50;99.90;;;-0.61;100.00;100156.16;5097079;28;20728;-83
2022/01/14 02:09:35;;;;;;;7.20;3.70;;;-1.40;99.90;;;-0.55;100.00;100152.50;5093052;28;20865;-83
2022/01/14 02:12:10;;;;;;;4.87;3.87;;;-1.40;99.90;;;-0.55;100.00;100144.78;5095735;28;20462;-83
2022/01/14 02:14:54;;;;;;;4.90;3.40;;;-1.40;99.90;;;-0.49;100.00;100138.56;5095353;27;20501;-83
2022/01/14 02:17:45;;;;;;;11.57;3.33;;;-1.30;99.90;;;-0.64;100.00;100135.75;5095739;27;20468;-83
2022/01/14 02:23:06;;;;;;;7.40;3.33;;;-1.70;99.90;;;-0.79;100.00;100131.25;5094998;28;20478;-82
2022/01/14 02:25:37;;;;;;;4.30;2.93;;;-1.60;99.90;;;-0.77;100.00;100126.91;5096007;28;20845;-83
2022/01/14 02:28:09;;;;;;;3.53;2.53;;;-1.60;99.90;;;-0.79;100.00;100131.25;5094105;28;20486;-83
2022/01/14 02:30:41;;;;;;;3.83;2.70;;;-1.60;99.90;;;-0.70;100.00;100125.75;5093938;28;20499;-83
2022/01/14 02:33:13;;;;;;;3.00;2.70;;;-1.50;99.90;;;-0.76;100.00;100125.97;5091920;28;20568;-82
2022/01/14 02:35:48;;;;;;;6.17;3.23;;;-1.60;99.90;;;-0.72;100.00;100116.41;5093062;28;20560;-82
2022/01/14 02:38:19;;;;;;;3.40;2.53;;;-1.60;99.90;;;-0.67;100.00;100111.94;5096473;28;20489;-83
2022/01/14 02:40:50;;;;;;;5.93;3.33;;;-1.50;99.90;;;-0.66;100.00;100113.63;5097029;28;20484;-82
2022/01/14 02:43:22;;;;;;;5.27;2.80;;;-1.50;99.90;;;-0.76;100.00;100105.44;5096280;28;20463;-82
2022/01/14 02:45:55;;;;;;;5.57;2.90;;;-1.60;99.90;;;-0.79;100.00;100110.72;5092380;28;20822;-82
2022/01/14 02:48:28;;;;;;;6.30;3.50;;;-1.70;99.90;;;-0.73;100.00;100097.59;5095692;28;21009;-82
2022/01/14 02:51:01;;;;;;;3.90;2.90;;;-1.60;99.90;;;-0.69;100.00;100100.88;5094728;28;20466;-83
2022/01/14 02:53:44;;;;;;;6.70;3.07;;;-1.50;99.90;;;-0.64;100.00;100099.78;5092253;28;20482;-82
2022/01/14 02:56:20;;;;;;;8.60;2.80;;;-1.50;99.90;;;-0.63;100.00;100095.50;5096533;28;20463;-82
2022/01/14 02:58:52;;;;;;;4.63;2.80;;;-1.50;99.90;;;-0.61;100.00;100089.38;5095366;28;20469;-82
2022/01/14 03:01:25;;;;;;;6.63;3.37;;;-1.40;99.90;;;-0.60;100.00;100087.66;5094744;28;21073;-83
2022/01/14 03:03:58;;;;;;;5.97;3.33;;;-1.40;99.90;;;-0.71;100.00;100082.97;5094648;28;20505;-82
2022/01/14 03:06:30;;;;;;;11.20;3.23;;;-1.50;99.90;;;-0.67;100.00;100079.38;5094830;28;20498;-82
2022/01/14 03:09:00;;;;;;;2.27;1.93;;;-1.50;99.90;;;-0.67;100.00;100079.38;5095259;28;20462;-83
2022/01/14 03:11:33;;;;;;;4.03;2.70;;;-1.50;99.90;;;-0.65;100.00;100077.56;5095901;28;20440;-82
2022/01/14 03:14:05;;;;;;;2.50;2.30;;;-1.40;99.90;;;-0.71;100.00;100080.41;5097655;28;20562;-82
2022/01/14 03:16:39;;;;;;;3.37;2.70;;;-1.60;99.90;;;-0.76;100.00;100077.19;5096206;28;20511;-83
2022/01/14 03:19:17;;;;;;;5.10;2.70;;;-1.70;99.90;;;-0.74;100.00;100077.97;5097311;27;20455;-82
2022/01/14 03:21:51;;;;;;;3.67;2.40;;;-1.60;99.90;;;-0.72;100.00;100073.59;5095868;28;20500;-83
2022/01/14 03:25:35;;;;;;;8.10;3.07;;;-1.60;99.90;;;-0.75;100.00;100068.59;5090976;28;20473;-82
2022/01/14 03:27:11;;;;;;;4.07;2.20;;;-1.60;99.90;;;-0.93;100.00;100082.22;5091990;28;20490;-82
2022/01/14 03:29:41;;;;;;;3.03;2.40;;;-1.80;99.90;;;-0.98;100.00;100073.91;5095581;28;20737;-82
2022/01/14 03:32:12;;;;;;;5.90;2.10;;;-1.80;99.90;;;-0.96;100.00;100079.78;5095287;28;20540;-82
2022/01/14 03:34:41;;;;;;;3.67;2.20;;;-1.80;99.90;;;-0.93;100.00;100076.25;5096439;28;20560;-83
2022/01/14 03:37:13;;;;;;;3.90;2.33;;;-1.80;99.90;;;-0.82;100.00;100080.03;5091454;28;21111;-82
2022/01/14 03:39:46;;;;;;;3.93;2.37;;;-1.70;99.90;;;-0.84;100.00;100076.72;5094439;28;20458;-82
2022/01/14 03:42:15;;;;;;;2.70;2.20;;;-1.70;99.90;;;-0.83;100.00;100080.94;5094122;28;20493;-82
2022/01/14 03:44:47;;;;;;;6.43;2.53;;;-1.70;99.90;;;-0.80;100.00;100067.94;5095154;28;20494;-82
2022/01/14 03:47:17;;;;;;;2.20;1.97;;;-1.60;99.90;;;-0.89;100.00;100067.50;5094846;28;20490;-83
2022/01/14 03:49:47;;;;;;;3.97;2.70;;;-1.80;99.90;;;-0.92;100.00;100067.66;5092699;28;20490;-82
2022/01/14 03:52:19;;;;;;;4.50;2.67;;;-1.80;99.90;;;-0.83;100.00;100073.22;5093218;28;20469;-83
2022/01/14 03:54:49;;;;;;;2.50;2.03;;;-1.70;99.90;;;-0.81;100.00;100071.44;5092580;28;20496;-83
2022/01/14 03:57:39;;;;;;;3.23;2.43;;;-1.60;99.90;;;-0.79;100.00;100059.34;5093822;28;20581;-82
2022/01/14 04:00:11;;;;;;;5.90;2.50;;;-1.60;99.90;;;-0.73;100.00;100065.97;5091946;28;20458;-82
2022/01/14 04:02:42;;;;;;;5.13;2.07;;;-1.50;99.90;;;-0.71;100.00;100064.16;5093404;28;20516;-82
2022/01/14 04:05:12;;;;;;;3.00;2.07;;;-1.50;99.90;;;-0.75;100.00;100066.03;5093663;28;20543;-82
2022/01/14 04:07:43;;;;;;;2.77;2.10;;;-1.50;99.90;;;-0.75;100.00;100068.59;5092809;28;20543;-83
2022/01/14 04:10:13;;;;;;;4.63;2.40;;;-1.50;99.90;;;-0.74;100.00;100066.88;5093648;28;21002;-83
2022/01/14 04:12:52;;;;;;;2.40;2.20;;;-1.50;99.90;;;-0.73;100.00;100068.53;5093558;28;20463;-83
2022/01/14 04:15:37;;;;;;;3.33;1.90;;;-1.50;99.90;;;-0.73;100.00;100053.94;5092150;28;20499;-82
2022/01/14 04:18:09;;;;;;;2.60;2.00;;;-1.50;99.90;;;-0.73;100.00;100060.84;5094031;28;21044;-83
2022/01/14 04:20:40;;;;;;;2.50;2.00;;;-1.50;99.90;;;-0.74;100.00;100065.13;5094923;28;21017;-82
2022/01/14 04:23:12;;;;;;;3.17;2.40;;;-1.50;99.90;;;-0.73;100.00;100059.09;5092377;28;20850;-83
2022/01/14 04:25:42;;;;;;;1.60;1.50;;;-1.50;99.90;;;-0.74;100.00;100054.88;5093779;28;20492;-83
2022/01/14 04:28:13;;;;;;;2.00;1.90;;;-1.50;99.90;;;-0.69;100.00;100054.66;5094445;28;20557;-83
2022/01/14 04:30:43;;;;;;;2.83;2.20;;;-1.50;99.90;;;-0.72;100.00;100050.50;5095917;28;20454;-82
2022/01/14 04:33:14;;;;;;;2.90;1.73;;;-1.30;99.90;;;-0.74;100.00;100057.44;5093116;28;20495;-82
2022/01/14 04:35:45;;;;;;;2.53;1.60;;;-1.50;99.90;;;-0.72;100.00;100053.06;5093528;28;20836;-83
2022/01/14 04:38:16;;;;;;;2.50;1.93;;;-1.40;99.90;;;-0.73;100.00;100053.94;5094039;28;20466;-83
2022/01/14 04:40:46;;;;;;;1.73;1.50;;;-1.50;99.90;;;-0.78;100.00;100050.75;5093667;28;20515;-83
2022/01/14 04:43:20;;;;;;;2.33;1.80;;;-1.60;99.90;;;-0.77;100.00;100047.31;5091592;28;20450;-83
2022/01/14 04:46:24;;;;;;;13.03;1.90;;;-1.60;99.90;;;-0.77;100.00;100042.16;5091637;28;20461;-82
2022/01/14 04:48:53;;;;;;;2.00;1.70;;;-1.60;99.90;;;-0.77;100.00;100042.16;5091816;28;20562;-83
2022/01/14 04:51:24;;;;;;;2.17;1.50;;;-1.60;99.90;;;-0.81;100.00;100032.09;5091767;28;20463;-83
2022/01/14 04:53:56;;;;;;;3.93;1.53;;;-1.60;99.90;;;-0.81;100.00;100029.53;5089759;28;20462;-83
2022/01/14 04:56:25;;;;;;;3.30;1.73;;;-1.60;99.90;;;-0.84;100.00;100035.63;5090623;28;20591;-83
2022/01/14 04:58:56;;;;;;;2.00;1.80;;;-1.70;99.90;;;-0.82;100.00;100023.53;5092049;28;20458;-83
2022/01/14 05:01:26;;;;;;;2.47;1.57;;;-1.60;99.90;;;-0.77;100.00;100031.91;5090277;28;20561;-83
2022/01/14 05:03:58;;;;;;;2.40;1.80;;;-1.50;99.90;;;-0.77;100.00;100026.75;5090788;28;20480;-82
2022/01/14 05:06:29;;;;;;;2.00;1.80;;;-1.50;99.90;;;-0.87;100.00;100022.94;5089482;28;20474;-82
2022/01/14 05:09:05;;;;;;;9.50;2.23;;;-1.70;99.90;;;-0.82;100.00;100031.25;5090438;28;20494;-83
2022/01/14 05:11:40;;;;;;;2.90;1.80;;;-1.60;99.90;;;-0.81;100.00;100032.94;5094297;28;20524;-82
2022/01/14 05:14:09;;;;;;;1.80;1.70;;;-1.60;99.90;;;-0.82;100.00;100027.84;5094773;28;20500;-82
2022/01/14 05:16:40;;;;;;;2.63;1.90;;;-1.60;99.90;;;-0.90;100.00;100029.94;5098347;28;20569;-83
2022/01/14 05:19:10;;;;;;;2.00;1.40;;;-1.70;99.90;;;-0.88;100.00;100030.69;5099578;28;20445;-82
2022/01/14 05:21:40;;;;;;;1.63;1.50;;;-1.70;99.90;;;-0.87;100.00;100029.78;5095245;28;20463;-83
2022/01/14 05:24:11;;;;;;;2.23;1.70;;;-1.60;99.90;;;-0.88;100.00;100033.25;5096182;27;20953;-83
2022/01/14 05:26:40;;;;;;;2.50;1.90;;;-1.60;99.90;;;-0.93;100.00;100033.44;5096055;28;20515;-83
2022/01/14 05:29:09;;;;;;;3.27;1.60;;;-1.70;99.90;;;-0.89;100.00;100032.41;5099089;28;20548;-83
2022/01/14 05:31:45;;;;;;;3.30;2.00;;;-1.70;99.90;;;-0.88;100.00;100028.94;5094504;27;21810;-84
2022/01/14 05:34:16;;;;;;;2.60;2.30;;;-1.60;99.90;;;-0.94;100.00;100029.22;5096684;28;20464;-85
2022/01/14 05:36:46;;;;;;;1.97;1.70;;;-1.80;99.90;;;-0.92;100.00;100026.56;5093321;28;20983;-78
2022/01/14 05:39:20;;;;;;;2.40;1.90;;;-1.60;99.90;;;-0.88;100.00;100023.81;5092328;28;20541;-78
2022/01/14 05:41:49;;;;;;;4.00;1.73;;;-1.70;99.90;;;-0.87;100.00;100024.66;5092109;27;20457;-78
2022/01/14 05:44:18;;;;;;;2.10;1.80;;;-1.60;99.90;;;-0.90;100.00;100025.59;5094699;28;20513;-77
2022/01/14 05:46:49;;;;;;;2.07;1.67;;;-1.60;99.90;;;-0.88;100.00;100017.84;5095331;28;20528;-77
2022/01/14 05:49:18;;;;;;;3.47;2.30;;;-1.60;99.90;;;-0.85;100.00;100020.28;5097507;28;20474;-77
2022/01/14 05:51:48;;;;;;;3.30;2.20;;;-1.60;99.90;;;-0.91;100.00;100018.81;5096099;28;20455;-77
2022/01/14 05:54:21;;;;;;;2.23;2.03;;;-1.60;99.90;;;-0.90;100.00;100029.94;5095940;28;20942;-78
2022/01/14 05:56:50;;;;;;;3.40;2.17;;;-1.60;99.90;;;-0.88;100.00;100026.38;5097193;28;20442;-77
2022/01/14 05:59:20;;;;;;;3.67;2.13;;;-1.60;99.90;;;-0.92;100.00;100032.56;5099819;28;20446;-77
2022/01/14 06:01:50;;;;;;;2.07;1.87;;;-1.70;99.90;;;-0.91;100.00;100025.69;5099641;28;20451;-78
2022/01/14 06:04:19;;;;;;;2.03;1.83;;;-1.70;99.90;;;-0.93;100.00;100023.16;5098589;28;20512;-77
2022/01/14 06:06:49;;;;;;;3.77;1.80;;;-1.70;99.90;;;-0.97;100.00;100023.38;5098275;28;20855;-78
2022/01/14 06:09:26;;;;;;;2.87;2.37;;;-1.80;99.90;;;-0.99;100.00;100015.75;5091908;28;20470;-78
2022/01/14 06:11:59;;;;;;;2.57;1.77;;;-1.80;99.90;;;-1.01;100.00;100020.13;5084016;27;20541;-78
2022/01/14 06:14:28;;;;;;;2.00;1.73;;;-1.80;99.90;;;-0.98;100.00;100016.59;5090729;28;20462;-77
2022/01/14 06:16:58;;;;;;;1.97;1.67;;;-1.70;99.90;;;-0.96;100.00;100015.59;5089981;28;20523;-77
2022/01/14 06:19:29;;;;;;;2.63;1.90;;;-1.70;99.90;;;-0.97;100.00;100019.06;5094002;27;20454;-77
2022/01/14 06:21:59;;;;;;;2.83;1.90;;;-1.70;99.90;;;-0.99;100.00;100013.19;5088222;27;20548;-76
2022/01/14 06:24:30;;;;;;;2.80;1.70;;;-1.70;99.90;;;-0.98;100.00;100022.56;5097012;28;20475;-77
2022/01/14 06:27:01;;;;;;;3.40;2.30;;;-1.70;99.90;;;-0.98;100.00;100022.56;5097536;28;21030;-77
2022/01/14 06:29:31;;;;;;;2.20;1.53;;;-1.70;99.90;;;-1.00;100.00;100034.59;5099189;28;20470;-77
2022/01/14 06:32:03;;;;;;;2.60;1.90;;;-1.70;99.90;;;-1.00;100.00;100024.34;5092873;28;20843;-77
2022/01/14 06:34:33;;;;;;;4.20;2.00;;;-1.70;99.90;;;-0.98;100.00;100027.69;5094455;27;20470;-77
2022/01/14 06:37:03;;;;;;;3.23;2.10;;;-1.70;99.90;;;-0.99;100.00;100022.59;5091872;28;20468;-77
2022/01/14 06:39:34;;;;;;;4.13;2.50;;;-1.80;99.90;;;-1.01;100.00;100032.97;5092544;28;24244;-78
2022/01/14 06:42:06;;;;;;;3.70;2.30;;;-1.80;99.90;;;-1.01;100.00;100022.69;5091647;27;20505;-77
2022/01/14 06:44:35;;;;;;;2.83;2.00;;;-1.80;99.90;;;-1.03;100.00;100034.72;5093868;28;20514;-78
2022/01/14 06:47:06;;;;;;;3.10;2.20;;;-1.80;99.90;;;-1.05;100.00;100042.53;5090606;28;20467;-78
2022/01/14 06:49:37;;;;;;;2.37;2.10;;;-1.90;99.90;;;-1.06;100.00;100037.44;5091588;28;20481;-78
2022/01/14 06:52:09;;;;;;;5.53;2.50;;;-1.90;99.90;;;-1.12;100.00;100032.56;5090250;28;20490;-78
2022/01/14 06:54:40;;;;;;;2.83;2.30;;;-1.90;99.90;;;-1.15;100.00;100028.41;5090830;28;20462;-78
2022/01/14 06:57:11;;;;;;;2.90;2.27;;;-2.00;99.90;;;-1.10;100.00;100030.75;5092813;28;20545;-77
2022/01/14 06:59:41;;;;;;;8.03;4.10;;;-1.90;99.90;;;-1.14;100.00;100031.78;5096121;27;20455;-77
2022/01/14 07:02:11;;;;;;;2.07;1.87;;;-2.00;99.90;;;-1.12;100.00;100033.41;5094767;27;20456;-77
2022/01/14 07:04:40;;;;;;;3.43;2.50;;;-1.90;99.90;;;-1.08;100.00;100036.69;5092785;28;20520;-77
2022/01/14 07:07:09;;;;;;;2.73;2.47;;;-1.90;99.90;;;-1.09;100.00;100040.13;5093036;28;20912;-77
2022/01/14 07:09:56;;;;;;;2.20;2.00;;;-1.80;99.90;;;-1.07;100.00;100038.31;5091424;28;20965;-77
2022/01/14 07:12:26;;;;;;;3.40;2.10;;;-1.80;99.90;;;-1.11;100.00;100039.38;5092968;28;20915;-78
2022/01/14 07:14:56;;;;;;;4.13;2.50;;;-1.90;99.90;;;-1.13;100.00;100043.72;5092777;27;20498;-78
2022/01/14 07:17:26;;;;;;;2.23;1.90;;;-1.90;99.90;;;-1.12;100.00;100046.25;5096580;28;20962;-77
2022/01/14 07:20:00;;;;;;;2.70;2.00;;;-1.90;99.90;;;-1.09;100.00;100047.84;5094413;28;20451;-78
2022/01/14 07:22:30;;;;;;;2.60;2.20;;;-1.80;99.90;;;-1.09;100.00;100050.41;5097559;28;20453;-77
2022/01/14 07:25:02;;;;;;;3.63;2.10;;;-1.80;99.90;;;-1.14;100.00;100053.16;5097345;28;20458;-77
2022/01/14 07:27:32;;;;;;;4.67;2.10;;;-1.90;99.90;;;-1.14;100.00;100052.31;5097645;28;20462;-78
2022/01/14 07:30:01;;;;;;;2.33;1.73;;;-1.90;99.90;;;-1.11;100.00;100058.16;5097372;28;20447;-78
2022/01/14 07:32:31;;;;;;;2.63;2.30;;;-1.90;99.90;;;-1.08;100.00;100047.75;5097126;28;20554;-78
2022/01/14 07:35:02;;;;;;;4.30;2.03;;;-1.90;99.90;;;-1.08;100.00;100049.50;5096380;28;20966;-77
2022/01/14 07:37:32;;;;;;;4.40;2.20;;;-1.90;99.90;;;-1.10;100.00;100059.84;5095421;28;21765;-77
2022/01/14 07:40:05;;;;;;;4.00;2.65;;;-1.90;99.90;;;-1.12;100.00;100055.66;5095982;28;20435;-77
2022/01/14 07:42:35;;;;;;;4.60;2.87;;;-1.90;99.90;;;-1.14;100.00;100055.72;5096549;28;20205;-77
2022/01/14 07:45:07;;;;;;;5.50;2.60;;;-2.00;99.90;;;-1.14;100.00;100058.28;5096676;28;20937;-78
2022/01/14 07:47:37;;;;;;;3.63;2.83;;;-2.00;99.90;;;-1.14;100.00;100057.44;5095438;28;20466;-77
2022/01/14 07:50:08;;;;;;;3.40;2.40;;;-2.00;99.90;;;-1.13;100.00;100051.44;5096563;28;20763;-77
2022/01/14 07:52:36;;;;;;;4.67;2.97;;;-2.00;99.90;;;-1.11;100.00;100054.78;5095487;28;20463;-77
2022/01/14 07:55:08;;;;;;;3.10;2.50;;;-2.00;99.90;;;-1.07;100.00;100049.44;5094820;28;20459;-77
2022/01/14 07:57:39;;;;;;;5.33;3.17;;;-1.90;99.90;;;-1.10;100.00;100048.72;5094234;28;20483;-77
2022/01/14 08:00:11;;;;;;;4.63;2.93;;;-1.90;99.90;;;-1.13;100.00;100054.00;5093649;28;20479;-77
2022/01/14 08:02:43;;;;;;;4.67;3.10;;;-2.00;99.90;;;-1.12;100.00;100038.53;5095647;28;20465;-77
2022/01/14 08:05:15;;;;;;;5.60;3.10;;;-2.00;99.90;;;-1.10;100.00;100046.16;5097323;28;20975;-77
2022/01/14 08:07:48;;;;;;;3.10;2.60;;;-1.90;99.90;;;-1.09;100.00;100056.38;5093282;28;20472;-77
2022/01/14 08:10:20;;;;;;;6.00;3.17;;;-1.90;99.90;;;-1.07;100.00;100048.59;5092508;28;20855;-78
2022/01/14 08:12:50;;;;;;;5.73;2.50;;;-1.80;99.90;;;-1.03;100.00;100045.84;5093686;28;21164;-77
2022/01/14 08:15:25;;;;;;;4.27;2.57;;;-1.80;99.90;;;-1.07;100.00;100048.59;5091193;28;20583;-78
2022/01/14 08:17:55;;;;;;;21.70;9.70;;;-1.90;99.90;;;-1.07;100.00;100053.72;5089285;28;20498;-77
2022/01/14 08:20:25;;;;;;;7.03;4.17;;;-1.90;99.90;;;-1.03;100.00;100047.56;5089843;28;20569;-77
2022/01/14 08:22:58;;;;;;;8.10;2.93;;;-1.80;99.90;;;-1.06;100.00;100050.28;5091777;28;20466;-77
2022/01/14 08:25:30;;;;;;;3.83;2.87;;;-1.90;99.90;;;-1.04;100.00;100045.88;5088967;28;20467;-77
2022/01/14 08:28:00;;;;;;;3.80;2.70;;;-1.80;99.90;;;-1.02;100.00;100044.94;5089811;28;20927;-77
2022/01/14 08:30:38;;;;;;;6.03;3.60;;;-1.80;99.90;;;-0.98;100.00;100042.25;5093070;28;20466;-77
2022/01/14 08:33:08;;;;;;;4.43;3.00;;;-1.70;99.90;;;-0.98;100.00;100040.53;5088800;28;20459;-77
2022/01/14 08:35:39;;;;;;;4.17;2.63;;;-1.80;99.90;;;-0.96;100.00;100050.72;5091596;28;20457;-77
2022/01/14 08:38:09;;;;;;;6.73;3.60;;;-1.80;99.90;;;-0.97;100.00;100049.06;5092361;28;20555;-77
2022/01/14 08:40:40;;;;;;;4.60;3.00;;;-1.80;99.90;;;-0.96;100.00;100051.53;5095373;28;20461;-77
2022/01/14 08:43:10;;;;;;;4.97;2.53;;;-1.80;99.90;;;-0.92;100.00;100047.94;5095672;28;20461;-78
2022/01/14 08:45:41;;;;;;;5.33;2.77;;;-1.70;99.90;;;-0.91;100.00;100041.94;5095375;28;20447;-78
2022/01/14 08:48:10;;;;;;;3.23;2.60;;;-1.60;99.90;;;-0.86;100.00;100046.84;5095250;28;20567;-78
2022/01/14 08:50:41;;;;;;;7.90;2.97;;;-1.60;99.90;;;-0.86;100.00;100051.97;5100824;28;20447;-77
2022/01/14 08:53:14;;;;;;;6.40;2.77;;;-1.60;99.90;;;-0.84;100.00;100050.19;5068003;28;21070;-77
2022/01/14 08:55:45;;;;;;;5.33;2.87;;;-1.60;99.90;;;-0.80;100.00;100042.28;5059453;28;20469;-77
2022/01/14 08:58:16;;;;;;;5.00;2.77;;;-1.50;99.90;;;-0.78;100.00;100047.34;5059971;28;20543;-77
2022/01/14 09:00:44;;;;;;;3.93;2.43;;;-1.50;99.90;;;-0.77;100.00;100039.59;5057637;28;20521;-77
2022/01/14 09:03:13;;;;;;;3.00;2.43;;;-1.50;99.90;;;-0.75;100.00;100035.22;5061636;28;20544;-77
2022/01/14 09:05:44;;;;;;;4.17;2.57;;;-1.40;99.90;;;-0.74;100.00;100031.75;5059126;28;20464;-78
2022/01/14 09:08:13;;;;;;;7.23;2.37;;;-1.40;99.90;;;-0.72;100.00;100036.81;5057508;28;20835;-77
2022/01/14 09:10:42;;;;;;;2.97;2.07;;;-1.40;99.90;;;-0.67;100.00;100035.72;5054465;28;20515;-78
2022/01/14 09:13:13;;;;;;;4.43;2.07;;;-1.30;99.90;;;-0.66;100.00;100034.00;5055330;28;20581;-78
2022/01/14 09:15:43;;;;;;;6.57;3.20;;;-1.40;99.90;;;-0.63;100.00;100029.56;5052223;28;20488;-78
2022/01/14 09:18:13;;;;;;;4.37;3.00;;;-1.40;99.90;;;-0.63;100.00;100032.13;5052680;28;20488;-78
2022/01/14 09:20:43;;;;;;;5.67;3.00;;;-1.40;99.90;;;-0.61;100.00;100032.88;5056126;28;20980;-77
2022/01/14 09:23:17;;;;;;;3.80;2.73;;;-1.30;99.90;;;-0.56;100.00;100032.69;5057716;28;20513;-77
2022/01/14 09:25:47;;;;;;;4.47;2.40;;;-1.20;99.90;;;-0.58;100.00;100037.88;5055231;28;20568;-78
2022/01/14 09:28:19;;;;;;;4.27;3.10;;;-1.20;99.90;;;-0.55;100.00;100034.31;5056645;28;20729;-77
2022/01/14 09:30:48;;;;;;;3.10;2.80;;;-1.20;99.90;;;-0.51;100.00;100034.13;5055367;28;20471;-78
2022/01/14 09:33:20;;;;;;;5.13;3.00;;;-1.20;99.90;;;-0.46;100.00;100035.66;5054751;28;20822;-78
2022/01/14 09:35:50;;;;;;;6.03;2.90;;;-1.10;99.90;;;-0.43;100.00;100032.97;5053051;28;20466;-77
2022/01/14 09:38:21;;;;;;;5.07;2.90;;;-1.10;99.90;;;-0.41;100.00;100031.13;5053652;28;20625;-77
2022/01/14 09:40:52;;;;;;;3.53;2.90;;;-1.10;99.90;;;-0.40;100.00;100031.09;5056382;28;20883;-77
2022/01/14 09:43:25;;;;;;;5.60;2.70;;;-1.00;99.90;;;-0.35;100.00;100034.28;5058091;28;20458;-77
2022/01/14 09:46:06;;;;;;;3.47;2.50;;;-1.00;99.90;;;-0.31;100.00;100038.38;5055535;28;21032;-78
2022/01/14 09:48:36;;;;;;;3.10;2.57;;;-1.00;99.90;;;-0.27;100.00;100036.50;5055414;28;20486;-78
2022/01/14 09:51:07;;;;;;;3.60;2.60;;;-0.90;99.90;;;-0.24;100.00;100033.78;5054482;28;20734;-77
2022/01/14 09:53:36;;;;;;;4.23;2.80;;;-0.90;99.90;;;-0.22;100.00;100039.69;5055541;28;20817;-78
2022/01/14 09:56:07;;;;;;;2.20;2.00;;;-0.80;99.90;;;-0.16;100.00;100039.41;5054614;28;20559;-78
2022/01/14 09:58:41;;;;;;;3.83;2.40;;;-0.80;99.90;;;-0.13;100.00;100034.13;5055533;28;20505;-77
2022/01/14 10:01:15;;;;;;;4.43;2.30;;;-0.80;99.90;;;-0.10;100.00;100041.69;5054029;28;20832;-77
2022/01/14 10:04:17;;;;;;;5.07;2.20;;;-0.80;99.90;;;-0.05;100.00;100037.19;5052383;28;20509;-78
2022/01/14 10:06:51;;;;;;;3.10;2.10;;;-0.70;99.90;;;-0.03;100.00;100037.94;5056703;28;20464;-78
2022/01/14 10:09:24;;;;;;;2.87;2.30;;;-0.70;99.90;;;0.02;100.00;100035.16;5055977;28;20462;-78
2022/01/14 10:12:06;;;;;;;3.30;2.67;;;-0.70;99.90;;;0.05;100.00;100029.84;5056471;28;20452;-78
2022/01/14 10:14:40;;;;;;;3.47;2.60;;;-0.60;99.90;;;0.10;100.00;100026.19;5052709;28;20468;-77
2022/01/14 10:17:12;;;;;;;31.20;15.37;;;-0.60;99.90;;;0.14;100.00;100032.81;5054469;28;20986;-77
2022/01/14 10:19:45;;;;;;;3.50;2.80;;;-0.50;99.90;;;0.19;100.00;100023.16;5056477;28;20461;-77
2022/01/14 10:22:26;;;;;;;3.13;2.53;;;-0.40;99.90;;;0.24;100.00;100022.97;5058554;28;20462;-77
2022/01/14 10:25:00;;;;;;;3.27;2.40;;;-0.40;99.90;;;0.26;100.00;100021.97;5056722;28;20493;-77
2022/01/14 10:27:36;;;;;;;4.83;3.20;;;-0.40;99.90;;;0.30;100.00;100015.78;5058079;28;20461;-77
2022/01/14 10:30:17;;;;;;;5.60;2.83;;;-0.30;99.90;;;0.35;100.00;100015.53;5057343;28;21032;-77
2022/01/14 10:32:53;;;;;;;4.07;2.90;;;-0.30;99.90;;;0.39;100.00;100017.88;5055968;28;20468;-77
2022/01/14 10:35:27;;;;;;;4.10;2.43;;;-0.30;99.90;;;0.43;100.00;100023.72;5056347;28;20484;-77
2022/01/14 10:38:00;;;;;;;3.77;2.67;;;-0.20;99.90;;;0.47;100.00;100018.34;5055027;28;20526;-77
2022/01/14 10:40:31;;;;;;;3.10;2.50;;;-0.20;99.90;;;0.52;100.00;100013.81;5055593;28;20446;-76